createdAt,value
2023-03-15T00:02:35.364Z,82.3
2023-03-15T00:14:35.438Z,84.4
2023-03-15T00:26:35.441Z,88.8
2023-03-15T00:38:35.348Z,91.3
2023-03-15T00:50:35.349Z,89.7
2023-03-15T01:02:35.376Z,90.2
2023-03-15T01:14:35.423Z,91.0
2023-03-15T01:26:35.425Z,91.8
2023-03-15T01:38:35.343Z,92.2
2023-03-15T01:50:35.374Z,93.1
2023-03-15T02:02:35.364Z,93.3
2023-03-15T02:14:35.332Z,92.8
2023-03-15T02:26:35.327Z,92.3
2023-03-15T02:38:35.332Z,92.0
2023-03-15T02:50:35.392Z,92.1
2023-03-15T03:02:35.359Z,92.2
2023-03-15T03:14:35.337Z,87.4
2023-03-15T03:26:35.331Z,87.6
2023-03-15T03:38:35.329Z,86.8
2023-03-15T03:50:35.417Z,86.7
2023-03-15T04:02:35.391Z,87.6
2023-03-15T04:14:35.335Z,90.6
2023-03-15T04:26:35.359Z,97.7
2023-03-15T04:38:35.332Z,99.5
2023-03-15T04:50:35.349Z,100.0
2023-03-15T05:02:35.349Z,100.0
2023-03-15T05:14:35.392Z,100.0
2023-03-15T05:26:35.338Z,100.0
2023-03-15T05:38:35.329Z,100.0
2023-03-15T05:50:35.356Z,100.0
2023-03-15T06:02:35.335Z,100.0
2023-03-15T06:14:35.383Z,100.0
2023-03-15T06:26:35.470Z,100.0
2023-03-15T06:38:35.385Z,100.0
2023-03-15T06:50:46.503Z,100.0
2023-03-15T07:02:35.389Z,96.3
2023-03-15T07:14:35.336Z,96.3
2023-03-15T07:26:35.336Z,96.3
2023-03-15T07:38:35.372Z,96.3
2023-03-15T07:50:35.390Z,96.2
2023-03-15T08:02:35.345Z,96.1
2023-03-15T08:14:35.348Z,95.5
2023-03-15T08:26:35.415Z,94.3
2023-03-15T08:38:35.390Z,92.1
2023-03-15T08:50:35.370Z,92.2
2023-03-15T09:02:35.397Z,93.0
2023-03-15T09:14:35.388Z,93.0
2023-03-15T09:26:35.359Z,92.8
2023-03-15T09:38:35.490Z,92.0
2023-03-15T09:50:35.376Z,90.3
2023-03-15T10:02:35.347Z,89.8
2023-03-15T10:14:35.341Z,89.5
2023-03-15T10:26:35.358Z,86.8
2023-03-15T10:38:35.343Z,85.6
2023-03-15T10:50:35.359Z,86.0
2023-03-15T11:02:35.357Z,86.5
2023-03-15T11:14:35.327Z,88.8
2023-03-15T11:26:35.395Z,88.5
2023-03-15T11:38:35.347Z,80.0
2023-03-15T11:50:35.350Z,76.0
2023-03-15T12:02:35.418Z,72.1
2023-03-15T12:14:35.416Z,73.7
2023-03-15T12:26:35.438Z,68.7
2023-03-15T12:38:35.340Z,70.0
2023-03-15T12:50:35.463Z,62.6
2023-03-15T13:02:42.598Z,63.1
2023-03-15T13:14:35.326Z,68.4
2023-03-15T13:26:35.349Z,61.6
2023-03-15T13:38:35.471Z,54.1
2023-03-15T13:50:35.331Z,60.8
2023-03-15T14:02:35.401Z,54.2
2023-03-15T14:14:35.336Z,54.2
2023-03-15T14:26:35.366Z,55.6
2023-03-15T14:38:35.443Z,63.5
2023-03-15T14:50:35.536Z,64.4
2023-03-15T15:02:35.396Z,61.7
2023-03-15T15:14:35.601Z,63.2
2023-03-15T15:26:35.402Z,59.2
2023-03-15T15:38:35.331Z,56.9
2023-03-15T15:50:35.434Z,56.3
2023-03-15T16:02:35.375Z,57.6
2023-03-15T16:14:35.447Z,62.0
2023-03-15T16:26:35.369Z,61.1
2023-03-15T16:38:35.441Z,54.3
2023-03-15T16:50:35.349Z,54.2
2023-03-15T17:02:35.347Z,58.0
2023-03-15T17:14:35.384Z,60.0
2023-03-15T17:26:35.446Z,60.3
2023-03-15T17:38:35.566Z,66.4
2023-03-15T17:50:35.446Z,68.6
2023-03-15T18:02:35.629Z,70.9
2023-03-15T18:14:35.338Z,72.3
2023-03-15T18:26:35.852Z,73.9
2023-03-15T18:38:35.501Z,75.3
2023-03-15T18:50:35.486Z,76.6
2023-03-15T19:02:35.414Z,76.5
2023-03-15T19:14:35.783Z,76.5
2023-03-15T19:26:35.349Z,75.9
2023-03-15T19:38:35.474Z,75.7
2023-03-15T19:50:35.355Z,75.8
2023-03-15T20:02:35.344Z,74.5
2023-03-15T20:14:35.358Z,76.2
2023-03-15T20:26:35.476Z,77.4
2023-03-15T20:38:35.467Z,80.2
2023-03-15T20:50:35.375Z,81.7
2023-03-15T21:02:35.350Z,80.2
2023-03-15T21:14:35.352Z,86.0
2023-03-15T21:26:35.473Z,86.8
2023-03-15T21:38:35.324Z,84.5
2023-03-15T21:50:35.372Z,84.3
2023-03-15T22:02:35.337Z,86.4
2023-03-15T22:14:35.360Z,85.7
2023-03-15T22:26:35.419Z,84.7
2023-03-15T22:38:35.330Z,85.1
2023-03-15T22:50:35.333Z,86.1
2023-03-15T23:02:35.334Z,85.1
2023-03-15T23:14:35.394Z,83.7
2023-03-15T23:26:35.453Z,82.7
2023-03-15T23:38:35.474Z,81.7
2023-03-15T23:50:35.411Z,83.8
